createdAt,value
2023-03-02T00:02:10.822Z,25.13
2023-03-02T00:05:14.684Z,22.02
2023-03-02T00:08:18.683Z,21.98
2023-03-02T00:11:22.006Z,20.20
2023-03-02T00:14:24.567Z,20.83
2023-03-02T00:17:30.348Z,27.00
2023-03-02T00:20:35.902Z,19.27
2023-03-02T00:23:39.216Z,21.63
2023-03-02T00:26:42.369Z,20.63
2023-03-02T00:29:45.662Z,30.08
2023-03-02T00:32:48.310Z,23.10
2023-03-02T00:35:51.432Z,25.08
2023-03-02T00:38:54.176Z,22.92
2023-03-02T00:41:57.082Z,25.08
2023-03-02T00:45:01.570Z,19.02
2023-03-02T00:48:04.840Z,31.70
2023-03-02T00:51:08.450Z,20.95
2023-03-02T00:54:11.299Z,12.65
2023-03-02T00:57:14.256Z,15.70
2023-03-02T01:00:17.556Z,12.68
2023-03-02T01:03:23.683Z,22.92
2023-03-02T01:06:27.145Z,14.50
2023-03-02T01:09:29.977Z,21.90
2023-03-02T01:12:33.082Z,13.32
2023-03-02T01:15:36.113Z,18.38
2023-03-02T01:18:39.166Z,16.07
2023-03-02T01:21:42.224Z,20.83
2023-03-02T01:24:45.085Z,16.25
2023-03-02T01:27:47.934Z,22.00
2023-03-02T01:30:54.527Z,21.10
2023-03-02T01:33:57.037Z,20.13
2023-03-02T01:36:59.932Z,24.58
2023-03-02T01:40:06.483Z,21.65
2023-03-02T01:43:14.433Z,23.42
2023-03-02T01:46:28.779Z,17.88
2023-03-02T01:49:38.080Z,24.60
2023-03-02T01:52:43.266Z,20.20
2023-03-02T01:55:46.568Z,18.80
2023-03-02T01:58:54.447Z,24.40
2023-03-02T02:02:00.507Z,19.45
2023-03-02T02:05:05.196Z,18.42
2023-03-02T02:08:08.920Z,17.83
2023-03-02T02:11:12.557Z,22.50
2023-03-02T02:14:15.838Z,15.35
2023-03-02T02:17:19.673Z,20.17
2023-03-02T02:20:31.796Z,16.90
2023-03-02T02:23:41.394Z,18.15
2023-03-02T02:26:50.335Z,18.65
2023-03-02T02:29:54.417Z,20.47
2023-03-02T02:32:59.854Z,16.60
2023-03-02T02:36:07.895Z,18.80
2023-03-02T02:39:29.132Z,17.02
2023-03-02T02:42:36.308Z,20.27
2023-03-02T02:45:39.563Z,17.17
2023-03-02T02:48:42.971Z,17.65
2023-03-02T02:51:45.925Z,16.40
2023-03-02T02:54:51.302Z,19.58
2023-03-02T02:57:58.422Z,15.45
2023-03-02T03:01:01.952Z,18.90
2023-03-02T03:04:06.905Z,21.65
2023-03-02T03:07:17.391Z,18.25
2023-03-02T03:10:40.095Z,19.00
2023-03-02T03:13:44.542Z,20.58
2023-03-02T03:16:50.274Z,21.67
2023-03-02T03:19:53.225Z,21.67
2023-03-02T03:22:59.432Z,14.53
2023-03-02T03:26:03.752Z,17.45
2023-03-02T03:29:07.562Z,20.48
2023-03-02T03:32:10.665Z,22.23
2023-03-02T03:35:14.269Z,18.00
2023-03-02T03:38:17.507Z,17.98
2023-03-02T03:41:23.600Z,20.52
2023-03-02T03:44:26.209Z,16.23
2023-03-02T03:47:29.634Z,19.60
2023-03-02T03:50:33.417Z,21.40
2023-03-02T03:53:36.712Z,18.10
2023-03-02T03:56:46.103Z,17.13
2023-03-02T03:59:49.823Z,25.45
2023-03-02T04:02:53.795Z,16.40
2023-03-02T04:05:57.025Z,20.77
2023-03-02T04:09:04.779Z,16.00
2023-03-02T04:12:10.347Z,20.13
2023-03-02T04:15:16.520Z,17.63
2023-03-02T04:18:21.205Z,16.45
2023-03-02T04:21:24.464Z,21.55
2023-03-02T04:24:27.827Z,22.27
2023-03-02T04:27:32.771Z,19.80
2023-03-02T04:30:35.839Z,17.50
2023-03-02T04:33:39.227Z,18.23
2023-03-02T04:36:42.921Z,18.60
2023-03-02T04:39:51.323Z,19.48
2023-03-02T04:42:54.388Z,17.20
2023-03-02T04:45:57.150Z,17.80
2023-03-02T04:49:00.436Z,20.70
2023-03-02T04:52:04.302Z,20.55
2023-03-02T04:55:08.037Z,19.50
2023-03-02T04:58:11.006Z,21.48
2023-03-02T05:01:15.228Z,24.70
2023-03-02T05:04:18.470Z,21.47
2023-03-02T05:07:21.250Z,19.52
2023-03-02T05:10:25.151Z,19.38
2023-03-02T05:13:28.566Z,24.85
2023-03-02T05:16:34.164Z,20.95
2023-03-02T05:19:37.202Z,23.98
2023-03-02T05:22:40.129Z,19.70
2023-03-02T05:25:42.951Z,19.47
2023-03-02T05:28:46.318Z,19.55
2023-03-02T05:31:49.264Z,18.88
2023-03-02T05:34:51.950Z,19.53
2023-03-02T05:37:54.835Z,19.40
2023-03-02T05:40:57.480Z,19.30
2023-03-02T05:44:00.781Z,19.95
2023-03-02T05:47:03.556Z,18.58
2023-03-02T05:50:07.163Z,21.45
2023-03-02T05:53:10.690Z,19.70
2023-03-02T05:56:13.444Z,20.73
2023-03-02T05:59:16.438Z,20.48
2023-03-02T06:02:19.674Z,26.50
2023-03-02T06:05:22.824Z,21.90
2023-03-02T06:08:26.310Z,24.38
2023-03-02T06:11:30.314Z,20.50
2023-03-02T06:14:33.206Z,25.33
2023-03-02T06:17:35.965Z,19.42
2023-03-02T06:20:39.873Z,20.73
2023-03-02T06:23:42.664Z,23.13
2023-03-02T06:26:45.391Z,24.20
2023-03-02T06:29:48.151Z,21.52
2023-03-02T06:32:51.494Z,19.02
2023-03-02T06:35:54.253Z,19.03
2023-03-02T06:38:57.055Z,17.90
2023-03-02T06:42:00.362Z,14.82
2023-03-02T06:45:03.231Z,19.92
2023-03-02T06:48:06.842Z,17.15
2023-03-02T06:51:10.422Z,18.80
2023-03-02T06:54:13.804Z,20.52
2023-03-02T06:57:16.375Z,18.27
2023-03-02T07:00:26.266Z,19.60
2023-03-02T07:03:30.376Z,17.90
2023-03-02T07:06:33.141Z,21.43
2023-03-02T07:09:35.957Z,18.17
2023-03-02T07:12:38.606Z,18.42
2023-03-02T07:15:41.324Z,23.85
2023-03-02T07:18:44.229Z,28.02
2023-03-02T07:21:46.957Z,20.25
2023-03-02T07:24:49.842Z,18.90
2023-03-02T07:27:52.522Z,18.30
2023-03-02T07:30:55.938Z,17.70
2023-03-02T07:33:58.752Z,14.32
2023-03-02T07:37:01.613Z,17.20
2023-03-02T07:40:06.033Z,18.55
2023-03-02T07:43:09.209Z,19.67
2023-03-02T07:46:12.025Z,16.35
2023-03-02T07:49:14.815Z,14.38
2023-03-02T07:52:17.878Z,14.32
2023-03-02T07:55:20.759Z,13.45
2023-03-02T07:58:24.401Z,13.07
2023-03-02T08:01:27.379Z,14.80
2023-03-02T08:04:30.394Z,13.80
2023-03-02T08:07:33.133Z,16.70
2023-03-02T08:10:37.144Z,13.40
2023-03-02T08:13:40.217Z,12.38
2023-03-02T08:16:42.851Z,11.35
2023-03-02T08:19:45.692Z,12.45
2023-03-02T08:22:48.521Z,14.00
2023-03-02T08:25:53.348Z,16.45
2023-03-02T08:28:56.054Z,12.97
2023-03-02T08:32:02.531Z,14.70
2023-03-02T08:35:06.188Z,14.27
2023-03-02T08:38:09.272Z,13.60
2023-03-02T08:41:23.712Z,10.82
2023-03-02T08:44:26.621Z,12.05
2023-03-02T08:47:29.185Z,10.43
2023-03-02T08:50:33.317Z,12.07
2023-03-02T08:53:40.292Z,8.07
2023-03-02T08:56:44.498Z,9.30
2023-03-02T08:59:47.206Z,10.10
2023-03-02T09:02:50.085Z,8.15
2023-03-02T09:05:52.815Z,10.02
2023-03-02T09:08:56.039Z,7.87
2023-03-02T09:11:59.531Z,6.78
2023-03-02T09:15:02.759Z,7.80
2023-03-02T09:18:06.191Z,8.23
2023-03-02T09:21:09.822Z,9.85
2023-03-02T09:24:12.689Z,9.90
2023-03-02T09:27:15.393Z,8.35
2023-03-02T09:30:19.616Z,8.50
2023-03-02T09:33:24.559Z,8.13
2023-03-02T09:36:28.099Z,9.68
2023-03-02T09:39:31.011Z,8.47
2023-03-02T09:42:52.134Z,6.93
2023-03-02T09:46:23.648Z,6.28
2023-03-02T09:49:38.517Z,7.45
2023-03-02T09:52:54.778Z,6.15
2023-03-02T09:56:00.473Z,7.07
2023-03-02T09:59:18.272Z,7.47
2023-03-02T10:02:24.886Z,6.30
2023-03-02T10:05:39.894Z,5.00
2023-03-02T10:08:43.583Z,6.07
2023-03-02T10:12:13.253Z,5.87
2023-03-02T10:15:38.645Z,7.78
2023-03-02T10:18:57.396Z,6.20
2023-03-02T10:22:24.634Z,7.47
2023-03-02T10:25:41.603Z,5.97
2023-03-02T10:29:00.745Z,8.82
2023-03-02T10:32:20.412Z,8.48
2023-03-02T10:35:26.203Z,6.93
2023-03-02T10:38:29.422Z,6.82
2023-03-02T10:41:40.058Z,8.02
2023-03-02T10:44:55.406Z,4.80
2023-03-02T10:48:11.196Z,4.40
2023-03-02T10:51:22.650Z,5.93
2023-03-02T10:54:26.376Z,7.82
2023-03-02T10:57:31.887Z,5.47
2023-03-02T11:00:36.857Z,8.15
2023-03-02T11:03:39.736Z,5.07
2023-03-02T11:06:42.570Z,9.43
2023-03-02T11:10:04.105Z,34.40
2023-03-02T11:13:28.968Z,12.57
2023-03-02T11:16:32.607Z,4.93
2023-03-02T11:19:39.502Z,4.90
2023-03-02T11:22:52.914Z,8.93
2023-03-02T11:26:00.013Z,6.55
2023-03-02T11:29:40.670Z,8.55
2023-03-02T11:33:27.717Z,5.03
2023-03-02T11:36:56.353Z,5.65
2023-03-02T11:40:20.048Z,6.23
2023-03-02T11:43:23.020Z,7.70
2023-03-02T11:46:32.295Z,5.93
2023-03-02T11:49:45.751Z,5.83
2023-03-02T11:52:55.121Z,8.10
2023-03-02T11:55:58.060Z,6.53
2023-03-02T11:59:16.052Z,8.85
2023-03-02T12:02:20.527Z,6.38
2023-03-02T12:05:29.468Z,6.10
2023-03-02T12:08:37.859Z,7.32
2023-03-02T12:11:41.486Z,7.70
2023-03-02T12:14:44.126Z,5.80
2023-03-02T12:17:46.828Z,5.53
2023-03-02T12:21:07.762Z,7.00
2023-03-02T12:24:26.176Z,5.40
2023-03-02T12:27:35.827Z,5.95
2023-03-02T12:30:40.313Z,7.25
2023-03-02T12:33:51.643Z,6.57
2023-03-02T12:37:00.730Z,8.18
2023-03-02T12:40:21.837Z,6.88
2023-03-02T12:43:33.758Z,7.67
2023-03-02T12:46:37.456Z,4.70
2023-03-02T12:49:57.401Z,5.68
2023-03-02T12:53:05.713Z,4.20
2023-03-02T12:56:09.798Z,5.97
2023-03-02T12:59:38.400Z,5.28
2023-03-02T13:02:46.436Z,5.85
2023-03-02T13:05:49.384Z,8.65
2023-03-02T13:08:56.216Z,10.73
2023-03-02T13:12:00.540Z,7.03
2023-03-02T13:15:03.461Z,5.47
2023-03-02T13:18:06.300Z,5.35
2023-03-02T13:21:13.392Z,4.50
2023-03-02T13:24:57.950Z,8.40
2023-03-02T13:28:07.808Z,8.05
2023-03-02T13:31:25.200Z,5.47
2023-03-02T13:34:32.510Z,5.10
2023-03-02T13:37:40.311Z,5.90
2023-03-02T13:40:52.431Z,2.67
2023-03-02T13:43:56.012Z,9.07
2023-03-02T13:46:59.260Z,4.47
2023-03-02T13:50:18.044Z,9.85
2023-03-02T13:53:26.023Z,6.88
2023-03-02T13:56:38.520Z,5.73
2023-03-02T13:59:42.387Z,8.15
2023-03-02T14:02:45.512Z,6.40
2023-03-02T14:05:48.510Z,4.50
2023-03-02T14:08:51.811Z,7.40
2023-03-02T14:11:56.258Z,7.70
2023-03-02T14:15:04.509Z,5.82
2023-03-02T14:18:39.714Z,11.80
2023-03-02T14:21:43.520Z,8.75
2023-03-02T14:24:49.242Z,8.43
2023-03-02T14:27:52.206Z,4.57
2023-03-02T14:30:57.262Z,6.72
2023-03-02T14:34:00.252Z,4.50
2023-03-02T14:37:05.242Z,9.77
2023-03-02T14:40:23.230Z,4.53
2023-03-02T14:43:26.428Z,6.43
2023-03-02T14:46:29.166Z,6.00
2023-03-02T14:49:32.113Z,7.10
2023-03-02T14:52:44.481Z,5.07
2023-03-02T14:55:47.645Z,6.18
2023-03-02T14:58:52.200Z,7.83
2023-03-02T15:01:57.728Z,7.75
2023-03-02T15:05:01.483Z,6.05
2023-03-02T15:08:04.480Z,16.50
2023-03-02T15:11:09.009Z,4.07
2023-03-02T15:14:11.805Z,5.90
2023-03-02T15:17:14.572Z,6.28
2023-03-02T15:20:20.424Z,7.10
2023-03-02T15:23:23.540Z,9.05
2023-03-02T15:26:26.148Z,20.10
2023-03-02T15:29:29.291Z,14.63
2023-03-02T15:32:32.422Z,11.45
2023-03-02T15:35:38.971Z,10.48
2023-03-02T15:38:41.787Z,7.25
2023-03-02T15:41:44.816Z,9.88
2023-03-02T15:44:47.831Z,16.48
2023-03-02T15:47:50.842Z,9.55
2023-03-02T15:51:01.904Z,8.17
2023-03-02T15:54:06.733Z,3.83
2023-03-02T15:57:11.159Z,4.53
2023-03-02T16:00:16.005Z,5.27
2023-03-02T16:03:19.625Z,4.75
2023-03-02T16:06:24.609Z,4.70
2023-03-02T16:09:29.105Z,7.95
2023-03-02T16:12:32.149Z,6.57
2023-03-02T16:15:42.050Z,6.70
2023-03-02T16:18:49.744Z,7.70
2023-03-02T16:21:52.873Z,7.97
2023-03-02T16:24:55.727Z,8.07
2023-03-02T16:27:58.668Z,5.97
2023-03-02T16:31:08.202Z,12.67
2023-03-02T16:34:11.636Z,16.85
2023-03-02T16:37:14.624Z,11.70
2023-03-02T16:40:17.688Z,7.07
2023-03-02T16:43:24.560Z,6.53
2023-03-02T16:46:31.952Z,9.38
2023-03-02T16:49:35.337Z,6.43
2023-03-02T16:52:38.578Z,11.17
2023-03-02T16:55:41.667Z,9.40
2023-03-02T16:58:44.597Z,7.25
2023-03-02T17:01:47.451Z,22.83
2023-03-02T17:04:50.652Z,21.65
2023-03-02T17:07:53.948Z,22.80
2023-03-02T17:10:57.219Z,31.85
2023-03-02T17:14:00.310Z,24.75
2023-03-02T17:17:03.674Z,31.95
2023-03-02T17:20:08.181Z,37.20
2023-03-02T17:23:14.413Z,38.77
2023-03-02T17:26:17.407Z,38.25
2023-03-02T17:29:20.999Z,29.85
2023-03-02T17:32:24.364Z,48.60
2023-03-02T17:35:27.547Z,50.90
2023-03-02T17:38:30.761Z,54.15
2023-03-02T17:41:35.117Z,61.80
2023-03-02T17:44:40.314Z,86.38
2023-03-02T17:47:43.160Z,112.35
2023-03-02T17:50:47.775Z,156.90
2023-03-02T17:53:52.445Z,159.20
2023-03-02T17:56:55.583Z,96.45
2023-03-02T17:59:58.374Z,72.25
2023-03-02T18:03:02.356Z,76.23
2023-03-02T18:06:05.902Z,61.80
2023-03-02T18:09:10.294Z,73.97
2023-03-02T18:12:13.738Z,40.35
2023-03-02T18:15:17.067Z,36.97
2023-03-02T18:18:19.867Z,31.13
2023-03-02T18:21:23.678Z,29.42
2023-03-02T18:24:26.778Z,57.13
2023-03-02T18:27:29.858Z,66.88
2023-03-02T18:30:33.758Z,39.10
2023-03-02T18:33:37.152Z,26.30
2023-03-02T18:36:40.484Z,18.17
2023-03-02T18:39:44.142Z,17.48
2023-03-02T18:42:47.743Z,22.48
2023-03-02T18:45:50.729Z,16.45
2023-03-02T18:48:54.507Z,29.23
2023-03-02T18:51:57.858Z,29.20
2023-03-02T18:55:00.822Z,33.00
2023-03-02T18:58:04.317Z,36.63
2023-03-02T19:01:07.722Z,39.13
2023-03-02T19:04:11.002Z,41.17
2023-03-02T19:07:14.515Z,58.85
2023-03-02T19:10:19.545Z,62.90
2023-03-02T19:13:25.545Z,91.28
2023-03-02T19:16:28.833Z,89.60
2023-03-02T19:19:32.062Z,77.82
2023-03-02T19:22:35.395Z,67.90
2023-03-02T19:25:38.965Z,75.67
2023-03-02T19:28:42.285Z,79.60
2023-03-02T19:31:45.542Z,78.13
2023-03-02T19:34:49.426Z,69.13
2023-03-02T19:37:52.808Z,89.07
2023-03-02T19:40:58.219Z,89.65
2023-03-02T19:44:02.338Z,94.13
2023-03-02T19:47:05.437Z,71.05
2023-03-02T19:50:10.245Z,58.10
2023-03-02T19:53:17.565Z,54.70
2023-03-02T19:56:22.013Z,66.47
2023-03-02T19:59:27.038Z,74.15
2023-03-02T20:02:31.248Z,74.43
2023-03-02T20:05:35.135Z,90.27
2023-03-02T20:08:38.468Z,105.93
2023-03-02T20:11:41.783Z,104.50
2023-03-02T20:14:49.462Z,116.70
2023-03-02T20:17:52.806Z,112.55
2023-03-02T20:20:55.906Z,88.47
2023-03-02T20:24:00.159Z,74.03
2023-03-02T20:27:03.648Z,62.30
2023-03-02T20:30:10.604Z,63.67
2023-03-02T20:33:20.324Z,66.85
2023-03-02T20:36:29.810Z,67.27
2023-03-02T20:39:36.319Z,81.30
2023-03-02T20:42:40.903Z,94.47
2023-03-02T20:45:44.218Z,86.68
2023-03-02T20:48:47.910Z,86.20
2023-03-02T20:51:55.100Z,80.25
2023-03-02T20:54:59.647Z,75.82
2023-03-02T20:58:05.482Z,68.90
2023-03-02T21:01:08.748Z,71.63
2023-03-02T21:04:12.009Z,71.43
2023-03-02T21:07:15.949Z,68.47
2023-03-02T21:10:24.700Z,69.93
2023-03-02T21:13:28.009Z,60.47
2023-03-02T21:16:36.320Z,64.80
2023-03-02T21:19:39.977Z,54.97
2023-03-02T21:22:43.011Z,57.05
2023-03-02T21:25:47.424Z,56.45
2023-03-02T21:28:51.030Z,47.40
2023-03-02T21:31:54.443Z,59.97
2023-03-02T21:34:57.428Z,46.63
2023-03-02T21:38:04.991Z,45.63
2023-03-02T21:41:08.906Z,50.63
2023-03-02T21:44:14.148Z,49.33
2023-03-02T21:47:17.064Z,50.30
2023-03-02T21:50:27.417Z,44.78
2023-03-02T21:53:30.685Z,54.53
2023-03-02T21:56:33.898Z,54.58
2023-03-02T21:59:37.551Z,69.20
2023-03-02T22:02:40.565Z,66.85
2023-03-02T22:05:43.475Z,65.93
2023-03-02T22:08:46.536Z,56.37
2023-03-02T22:11:49.794Z,58.40
2023-03-02T22:14:54.040Z,50.28
2023-03-02T22:17:56.730Z,54.53
2023-03-02T22:21:00.382Z,64.45
2023-03-02T22:24:11.146Z,57.45
2023-03-02T22:27:26.468Z,48.00
2023-03-02T22:30:29.575Z,46.73
2023-03-02T22:33:34.025Z,39.05
2023-03-02T22:36:36.868Z,40.10
2023-03-02T22:39:42.062Z,43.17
2023-03-02T22:42:45.104Z,39.10
2023-03-02T22:45:47.898Z,48.33
2023-03-02T22:48:52.422Z,43.80
2023-03-02T22:51:59.589Z,45.97
2023-03-02T22:55:22.986Z,43.58
2023-03-02T22:58:31.789Z,44.58
2023-03-02T23:01:45.209Z,46.83
2023-03-02T23:04:50.307Z,43.28
2023-03-02T23:08:24.016Z,65.97
2023-03-02T23:11:31.557Z,91.10
2023-03-02T23:14:51.366Z,80.88
2023-03-02T23:17:57.954Z,66.53
2023-03-02T23:21:00.834Z,50.20
2023-03-02T23:24:03.978Z,60.75
2023-03-02T23:27:06.604Z,50.97
2023-03-02T23:30:10.003Z,60.22
2023-03-02T23:33:12.516Z,48.57
2023-03-02T23:36:15.678Z,68.28
2023-03-02T23:39:18.563Z,80.75
2023-03-02T23:42:21.385Z,85.63
2023-03-02T23:45:24.236Z,55.50
2023-03-02T23:48:27.630Z,62.80
2023-03-02T23:51:31.465Z,76.78
2023-03-02T23:54:34.531Z,53.22
2023-03-02T23:57:37.204Z,43.00
